sensor_id;sensor_type;location;lat;lon;timestamp;P1;durP1;ratioP1;P2;durP2;ratioP2
18435;SDS011;9346;52.006;4.720;2023-02-19T00:01:39;22.27;;;5.37;;
18435;SDS011;9346;52.006;4.720;2023-02-19T00:04:09;15.83;;;5.20;;
18435;SDS011;9346;52.006;4.720;2023-02-19T00:06:39;20.80;;;4.57;;
18435;SDS011;9346;52.006;4.720;2023-02-19T00:09:08;10.50;;;3.60;;
18435;SDS011;9346;52.006;4.720;2023-02-19T00:11:36;14.67;;;4.43;;
18435;SDS011;9346;52.006;4.720;2023-02-19T00:14:04;9.67;;;3.43;;
18435;SDS011;9346;52.006;4.720;2023-02-19T00:16:33;8.80;;;3.27;;
18435;SDS011;9346;52.006;4.720;2023-02-19T00:19:02;21.80;;;3.60;;
18435;SDS011;9346;52.006;4.720;2023-02-19T00:21:30;19.60;;;3.87;;
18435;SDS011;9346;52.006;4.720;2023-02-19T00:23:58;14.47;;;3.33;;
18435;SDS011;9346;52.006;4.720;2023-02-19T00:26:28;8.80;;;2.47;;
18435;SDS011;9346;52.006;4.720;2023-02-19T00:28:55;11.70;;;2.97;;
18435;SDS011;9346;52.006;4.720;2023-02-19T00:31:24;24.40;;;3.33;;
18435;SDS011;9346;52.006;4.720;2023-02-19T00:33:53;9.03;;;2.87;;
18435;SDS011;9346;52.006;4.720;2023-02-19T00:36:22;12.40;;;3.03;;
18435;SDS011;9346;52.006;4.720;2023-02-19T00:38:50;12.33;;;3.53;;
18435;SDS011;9346;52.006;4.720;2023-02-19T00:41:18;9.70;;;2.93;;
18435;SDS011;9346;52.006;4.720;2023-02-19T00:43:49;13.10;;;3.63;;
18435;SDS011;9346;52.006;4.720;2023-02-19T00:46:17;13.93;;;2.83;;
18435;SDS011;9346;52.006;4.720;2023-02-19T00:48:45;5.83;;;2.17;;
18435;SDS011;9346;52.006;4.720;2023-02-19T00:51:12;14.43;;;3.13;;
18435;SDS011;9346;52.006;4.720;2023-02-19T00:53:40;11.40;;;2.67;;
18435;SDS011;9346;52.006;4.720;2023-02-19T00:56:07;18.87;;;3.70;;
18435;SDS011;9346;52.006;4.720;2023-02-19T00:58:35;9.20;;;2.50;;
18435;SDS011;9346;52.006;4.720;2023-02-19T01:01:04;10.90;;;3.47;;
18435;SDS011;9346;52.006;4.720;2023-02-19T01:03:32;14.77;;;2.73;;
18435;SDS011;9346;52.006;4.720;2023-02-19T01:06:00;18.63;;;3.07;;
18435;SDS011;9346;52.006;4.720;2023-02-19T01:08:28;9.27;;;2.40;;
18435;SDS011;9346;52.006;4.720;2023-02-19T01:10:56;10.40;;;2.87;;
18435;SDS011;9346;52.006;4.720;2023-02-19T01:13:23;8.57;;;3.37;;
18435;SDS011;9346;52.006;4.720;2023-02-19T01:15:50;11.33;;;2.97;;
18435;SDS011;9346;52.006;4.720;2023-02-19T01:18:19;14.40;;;3.80;;
18435;SDS011;9346;52.006;4.720;2023-02-19T01:20:46;11.27;;;3.07;;
18435;SDS011;9346;52.006;4.720;2023-02-19T01:23:13;17.27;;;3.37;;
18435;SDS011;9346;52.006;4.720;2023-02-19T01:25:40;11.00;;;3.93;;
18435;SDS011;9346;52.006;4.720;2023-02-19T01:28:08;13.03;;;3.53;;
18435;SDS011;9346;52.006;4.720;2023-02-19T01:30:37;14.70;;;3.90;;
18435;SDS011;9346;52.006;4.720;2023-02-19T01:33:05;11.37;;;3.87;;
18435;SDS011;9346;52.006;4.720;2023-02-19T01:35:37;11.70;;;3.20;;
18435;SDS011;9346;52.006;4.720;2023-02-19T01:38:05;14.97;;;3.37;;
18435;SDS011;9346;52.006;4.720;2023-02-19T01:40:32;9.00;;;3.17;;
18435;SDS011;9346;52.006;4.720;2023-02-19T01:42:59;13.13;;;3.03;;
18435;SDS011;9346;52.006;4.720;2023-02-19T01:45:28;16.47;;;4.00;;
18435;SDS011;9346;52.006;4.720;2023-02-19T01:48:03;11.97;;;3.50;;
18435;SDS011;9346;52.006;4.720;2023-02-19T01:50:39;18.30;;;3.60;;
18435;SDS011;9346;52.006;4.720;2023-02-19T01:53:10;6.33;;;2.67;;
18435;SDS011;9346;52.006;4.720;2023-02-19T01:55:39;9.37;;;2.33;;
18435;SDS011;9346;52.006;4.720;2023-02-19T01:58:08;8.73;;;3.00;;
18435;SDS011;9346;52.006;4.720;2023-02-19T02:00:36;7.87;;;2.40;;
18435;SDS011;9346;52.006;4.720;2023-02-19T02:03:03;18.23;;;2.97;;
18435;SDS011;9346;52.006;4.720;2023-02-19T02:05:36;21.93;;;3.30;;
18435;SDS011;9346;52.006;4.720;2023-02-19T02:08:12;7.57;;;2.23;;
18435;SDS011;9346;52.006;4.720;2023-02-19T02:10:58;6.77;;;2.57;;
18435;SDS011;9346;52.006;4.720;2023-02-19T02:13:25;9.17;;;2.27;;
18435;SDS011;9346;52.006;4.720;2023-02-19T02:15:54;16.47;;;3.97;;
18435;SDS011;9346;52.006;4.720;2023-02-19T02:18:35;7.17;;;2.70;;
18435;SDS011;9346;52.006;4.720;2023-02-19T02:21:26;12.23;;;2.97;;
18435;SDS011;9346;52.006;4.720;2023-02-19T02:24:06;12.80;;;2.73;;
18435;SDS011;9346;52.006;4.720;2023-02-19T02:26:46;15.43;;;2.97;;
18435;SDS011;9346;52.006;4.720;2023-02-19T02:32:39;11.50;;;2.10;;
18435;SDS011;9346;52.006;4.720;2023-02-19T02:35:18;12.20;;;2.57;;
18435;SDS011;9346;52.006;4.720;2023-02-19T02:37:48;8.67;;;2.60;;
18435;SDS011;9346;52.006;4.720;2023-02-19T02:40:17;6.33;;;2.90;;
18435;SDS011;9346;52.006;4.720;2023-02-19T02:42:44;11.90;;;2.73;;
18435;SDS011;9346;52.006;4.720;2023-02-19T02:45:19;13.17;;;3.27;;
18435;SDS011;9346;52.006;4.720;2023-02-19T02:48:17;13.57;;;2.20;;
18435;SDS011;9346;52.006;4.720;2023-02-19T02:50:53;10.40;;;3.10;;
18435;SDS011;9346;52.006;4.720;2023-02-19T02:53:24;11.93;;;2.20;;
18435;SDS011;9346;52.006;4.720;2023-02-19T02:56:13;7.47;;;2.13;;
18435;SDS011;9346;52.006;4.720;2023-02-19T02:58:42;10.37;;;2.13;;
18435;SDS011;9346;52.006;4.720;2023-02-19T03:01:14;10.63;;;2.63;;
18435;SDS011;9346;52.006;4.720;2023-02-19T03:04:04;10.60;;;2.53;;
18435;SDS011;9346;52.006;4.720;2023-02-19T03:06:35;7.40;;;1.80;;
18435;SDS011;9346;52.006;4.720;2023-02-19T03:09:06;2.93;;;1.60;;
18435;SDS011;9346;52.006;4.720;2023-02-19T03:11:38;9.03;;;1.77;;
18435;SDS011;9346;52.006;4.720;2023-02-19T03:14:26;7.50;;;2.67;;
18435;SDS011;9346;52.006;4.720;2023-02-19T03:17:17;11.30;;;2.27;;
18435;SDS011;9346;52.006;4.720;2023-02-19T03:20:09;6.40;;;2.60;;
18435;SDS011;9346;52.006;4.720;2023-02-19T03:22:40;9.97;;;2.60;;
18435;SDS011;9346;52.006;4.720;2023-02-19T03:25:11;6.83;;;2.03;;
18435;SDS011;9346;52.006;4.720;2023-02-19T03:27:59;11.43;;;2.37;;
18435;SDS011;9346;52.006;4.720;2023-02-19T03:30:30;4.87;;;1.60;;
18435;SDS011;9346;52.006;4.720;2023-02-19T03:32:59;8.77;;;1.67;;
18435;SDS011;9346;52.006;4.720;2023-02-19T03:35:34;7.63;;;1.73;;
18435;SDS011;9346;52.006;4.720;2023-02-19T03:38:06;11.03;;;2.77;;
18435;SDS011;9346;52.006;4.720;2023-02-19T03:40:38;7.67;;;2.17;;
18435;SDS011;9346;52.006;4.720;2023-02-19T03:43:13;8.47;;;2.10;;
18435;SDS011;9346;52.006;4.720;2023-02-19T03:45:47;13.10;;;2.37;;
18435;SDS011;9346;52.006;4.720;2023-02-19T03:48:23;11.30;;;2.53;;
18435;SDS011;9346;52.006;4.720;2023-02-19T03:51:01;12.17;;;2.57;;
18435;SDS011;9346;52.006;4.720;2023-02-19T03:53:46;15.73;;;2.67;;
18435;SDS011;9346;52.006;4.720;2023-02-19T03:56:20;15.50;;;3.10;;
18435;SDS011;9346;52.006;4.720;2023-02-19T03:58:53;10.70;;;2.60;;
18435;SDS011;9346;52.006;4.720;2023-02-19T04:01:27;10.50;;;2.93;;
18435;SDS011;9346;52.006;4.720;2023-02-19T04:04:00;4.20;;;1.87;;
18435;SDS011;9346;52.006;4.720;2023-02-19T04:06:34;9.47;;;1.93;;
18435;SDS011;9346;52.006;4.720;2023-02-19T04:09:05;11.17;;;2.47;;
18435;SDS011;9346;52.006;4.720;2023-02-19T04:11:34;12.83;;;2.40;;
18435;SDS011;9346;52.006;4.720;2023-02-19T04:14:05;10.10;;;2.30;;
18435;SDS011;9346;52.006;4.720;2023-02-19T04:16:36;13.77;;;2.50;;
18435;SDS011;9346;52.006;4.720;2023-02-19T04:19:07;11.33;;;2.37;;
18435;SDS011;9346;52.006;4.720;2023-02-19T04:21:38;7.53;;;2.33;;
18435;SDS011;9346;52.006;4.720;2023-02-19T04:24:09;5.63;;;1.87;;
18435;SDS011;9346;52.006;4.720;2023-02-19T04:26:40;10.93;;;2.10;;
18435;SDS011;9346;52.006;4.720;2023-02-19T04:29:09;7.60;;;1.83;;
18435;SDS011;9346;52.006;4.720;2023-02-19T04:31:36;13.30;;;2.50;;
18435;SDS011;9346;52.006;4.720;2023-02-19T04:34:04;11.17;;;2.10;;
18435;SDS011;9346;52.006;4.720;2023-02-19T04:36:31;5.87;;;1.63;;
18435;SDS011;9346;52.006;4.720;2023-02-19T04:39:00;10.60;;;2.63;;
18435;SDS011;9346;52.006;4.720;2023-02-19T04:41:27;9.73;;;1.90;;
18435;SDS011;9346;52.006;4.720;2023-02-19T04:43:54;7.10;;;1.50;;
18435;SDS011;9346;52.006;4.720;2023-02-19T04:46:21;10.93;;;2.73;;
18435;SDS011;9346;52.006;4.720;2023-02-19T04:48:48;9.87;;;2.40;;
18435;SDS011;9346;52.006;4.720;2023-02-19T04:51:15;12.03;;;3.07;;
18435;SDS011;9346;52.006;4.720;2023-02-19T04:53:42;9.43;;;2.23;;
18435;SDS011;9346;52.006;4.720;2023-02-19T04:56:12;10.93;;;2.23;;
18435;SDS011;9346;52.006;4.720;2023-02-19T04:58:40;8.27;;;3.00;;
18435;SDS011;9346;52.006;4.720;2023-02-19T05:01:08;9.70;;;2.77;;
18435;SDS011;9346;52.006;4.720;2023-02-19T05:03:36;12.80;;;2.47;;
18435;SDS011;9346;52.006;4.720;2023-02-19T05:06:03;10.77;;;1.73;;
18435;SDS011;9346;52.006;4.720;2023-02-19T05:08:32;4.47;;;2.47;;
18435;SDS011;9346;52.006;4.720;2023-02-19T05:10:59;11.10;;;2.30;;
18435;SDS011;9346;52.006;4.720;2023-02-19T05:13:29;9.83;;;2.13;;
18435;SDS011;9346;52.006;4.720;2023-02-19T05:15:58;9.47;;;2.57;;
18435;SDS011;9346;52.006;4.720;2023-02-19T05:18:26;14.57;;;3.17;;
18435;SDS011;9346;52.006;4.720;2023-02-19T05:20:53;5.60;;;2.50;;
18435;SDS011;9346;52.006;4.720;2023-02-19T05:23:20;16.73;;;2.93;;
18435;SDS011;9346;52.006;4.720;2023-02-19T05:25:47;11.50;;;2.37;;
18435;SDS011;9346;52.006;4.720;2023-02-19T05:28:14;4.47;;;2.03;;
18435;SDS011;9346;52.006;4.720;2023-02-19T05:30:46;9.23;;;2.10;;
18435;SDS011;9346;52.006;4.720;2023-02-19T05:33:15;8.40;;;2.27;;
18435;SDS011;9346;52.006;4.720;2023-02-19T05:35:44;7.73;;;1.90;;
18435;SDS011;9346;52.006;4.720;2023-02-19T05:38:12;6.07;;;2.23;;
18435;SDS011;9346;52.006;4.720;2023-02-19T05:40:39;13.53;;;3.07;;
18435;SDS011;9346;52.006;4.720;2023-02-19T05:43:06;8.30;;;1.90;;
18435;SDS011;9346;52.006;4.720;2023-02-19T05:45:34;6.37;;;2.83;;
18435;SDS011;9346;52.006;4.720;2023-02-19T05:48:03;6.10;;;2.33;;
18435;SDS011;9346;52.006;4.720;2023-02-19T05:50:32;8.03;;;2.90;;
18435;SDS011;9346;52.006;4.720;2023-02-19T05:53:00;6.30;;;2.47;;
18435;SDS011;9346;52.006;4.720;2023-02-19T05:55:28;5.33;;;2.10;;
18435;SDS011;9346;52.006;4.720;2023-02-19T05:57:55;10.10;;;2.93;;
18435;SDS011;9346;52.006;4.720;2023-02-19T06:00:22;7.13;;;2.17;;
18435;SDS011;9346;52.006;4.720;2023-02-19T06:02:51;6.27;;;2.20;;
18435;SDS011;9346;52.006;4.720;2023-02-19T06:05:20;8.10;;;2.80;;
18435;SDS011;9346;52.006;4.720;2023-02-19T06:07:47;8.80;;;3.13;;
18435;SDS011;9346;52.006;4.720;2023-02-19T06:10:15;5.87;;;2.80;;
18435;SDS011;9346;52.006;4.720;2023-02-19T06:12:43;6.57;;;2.87;;
18435;SDS011;9346;52.006;4.720;2023-02-19T06:15:10;6.30;;;2.50;;
18435;SDS011;9346;52.006;4.720;2023-02-19T06:17:37;6.27;;;3.20;;
18435;SDS011;9346;52.006;4.720;2023-02-19T06:20:04;10.03;;;3.00;;
18435;SDS011;9346;52.006;4.720;2023-02-19T06:22:33;4.63;;;2.67;;
18435;SDS011;9346;52.006;4.720;2023-02-19T06:25:00;5.83;;;2.60;;
18435;SDS011;9346;52.006;4.720;2023-02-19T06:27:27;9.70;;;3.97;;
18435;SDS011;9346;52.006;4.720;2023-02-19T06:29:54;9.30;;;3.67;;
18435;SDS011;9346;52.006;4.720;2023-02-19T06:32:21;18.07;;;3.80;;
18435;SDS011;9346;52.006;4.720;2023-02-19T06:34:48;9.33;;;3.13;;
18435;SDS011;9346;52.006;4.720;2023-02-19T06:37:15;8.67;;;3.47;;
18435;SDS011;9346;52.006;4.720;2023-02-19T06:39:44;8.00;;;2.60;;
18435;SDS011;9346;52.006;4.720;2023-02-19T06:42:11;17.30;;;3.50;;
18435;SDS011;9346;52.006;4.720;2023-02-19T06:44:38;9.10;;;3.13;;
18435;SDS011;9346;52.006;4.720;2023-02-19T06:47:04;9.87;;;3.37;;
18435;SDS011;9346;52.006;4.720;2023-02-19T06:49:31;6.97;;;2.97;;
18435;SDS011;9346;52.006;4.720;2023-02-19T06:51:58;8.87;;;3.70;;
18435;SDS011;9346;52.006;4.720;2023-02-19T06:54:26;6.87;;;2.90;;
18435;SDS011;9346;52.006;4.720;2023-02-19T06:56:54;6.07;;;3.00;;
18435;SDS011;9346;52.006;4.720;2023-02-19T06:59:23;10.13;;;2.87;;
18435;SDS011;9346;52.006;4.720;2023-02-19T07:01:51;16.13;;;3.67;;
18435;SDS011;9346;52.006;4.720;2023-02-19T07:04:19;13.47;;;3.30;;
18435;SDS011;9346;52.006;4.720;2023-02-19T07:06:45;6.83;;;3.07;;
18435;SDS011;9346;52.006;4.720;2023-02-19T07:09:12;14.43;;;3.47;;
18435;SDS011;9346;52.006;4.720;2023-02-19T07:11:39;9.10;;;2.97;;
18435;SDS011;9346;52.006;4.720;2023-02-19T07:14:12;9.03;;;3.20;;
18435;SDS011;9346;52.006;4.720;2023-02-19T07:16:41;13.20;;;3.77;;
18435;SDS011;9346;52.006;4.720;2023-02-19T07:19:08;8.23;;;2.97;;
18435;SDS011;9346;52.006;4.720;2023-02-19T07:21:35;9.20;;;3.53;;
18435;SDS011;9346;52.006;4.720;2023-02-19T07:24:02;8.03;;;2.50;;
18435;SDS011;9346;52.006;4.720;2023-02-19T07:26:30;8.37;;;2.80;;
18435;SDS011;9346;52.006;4.720;2023-02-19T07:28:57;7.10;;;3.70;;
18435;SDS011;9346;52.006;4.720;2023-02-19T07:31:26;8.50;;;2.70;;
18435;SDS011;9346;52.006;4.720;2023-02-19T07:33:54;9.53;;;2.63;;
18435;SDS011;9346;52.006;4.720;2023-02-19T07:36:21;15.53;;;2.93;;
18435;SDS011;9346;52.006;4.720;2023-02-19T07:38:53;10.93;;;3.00;;
18435;SDS011;9346;52.006;4.720;2023-02-19T07:41:21;10.87;;;3.30;;
18435;SDS011;9346;52.006;4.720;2023-02-19T07:43:48;9.07;;;3.50;;
18435;SDS011;9346;52.006;4.720;2023-02-19T07:46:15;9.23;;;2.67;;
18435;SDS011;9346;52.006;4.720;2023-02-19T07:48:44;6.90;;;2.77;;
18435;SDS011;9346;52.006;4.720;2023-02-19T07:51:12;18.03;;;4.10;;
18435;SDS011;9346;52.006;4.720;2023-02-19T07:53:45;6.17;;;3.10;;
18435;SDS011;9346;52.006;4.720;2023-02-19T07:56:14;9.13;;;3.30;;
18435;SDS011;9346;52.006;4.720;2023-02-19T07:58:41;12.70;;;4.23;;
18435;SDS011;9346;52.006;4.720;2023-02-19T08:01:11;6.27;;;3.50;;
18435;SDS011;9346;52.006;4.720;2023-02-19T08:03:40;19.20;;;3.90;;
18435;SDS011;9346;52.006;4.720;2023-02-19T08:06:08;11.17;;;3.47;;
18435;SDS011;9346;52.006;4.720;2023-02-19T08:08:36;6.47;;;3.03;;
18435;SDS011;9346;52.006;4.720;2023-02-19T08:11:04;5.03;;;3.33;;
18435;SDS011;9346;52.006;4.720;2023-02-19T08:13:49;11.93;;;3.67;;
18435;SDS011;9346;52.006;4.720;2023-02-19T08:16:17;6.40;;;3.27;;
18435;SDS011;9346;52.006;4.720;2023-02-19T08:18:45;13.13;;;4.50;;
18435;SDS011;9346;52.006;4.720;2023-02-19T08:21:14;10.20;;;3.80;;
18435;SDS011;9346;52.006;4.720;2023-02-19T08:23:44;9.17;;;3.60;;
18435;SDS011;9346;52.006;4.720;2023-02-19T08:26:11;11.17;;;3.40;;
18435;SDS011;9346;52.006;4.720;2023-02-19T08:28:39;8.50;;;2.80;;
18435;SDS011;9346;52.006;4.720;2023-02-19T08:31:07;12.70;;;3.70;;
18435;SDS011;9346;52.006;4.720;2023-02-19T08:33:35;8.10;;;3.47;;
18435;SDS011;9346;52.006;4.720;2023-02-19T08:36:03;14.70;;;3.83;;
18435;SDS011;9346;52.006;4.720;2023-02-19T08:38:34;5.50;;;3.10;;
18435;SDS011;9346;52.006;4.720;2023-02-19T08:41:04;7.50;;;3.70;;
18435;SDS011;9346;52.006;4.720;2023-02-19T08:43:32;10.50;;;3.07;;
18435;SDS011;9346;52.006;4.720;2023-02-19T08:46:00;9.87;;;3.33;;
18435;SDS011;9346;52.006;4.720;2023-02-19T08:48:27;11.07;;;3.40;;
18435;SDS011;9346;52.006;4.720;2023-02-19T08:50:55;6.60;;;3.80;;
18435;SDS011;9346;52.006;4.720;2023-02-19T08:53:23;11.23;;;3.40;;
18435;SDS011;9346;52.006;4.720;2023-02-19T08:55:52;7.83;;;2.77;;
18435;SDS011;9346;52.006;4.720;2023-02-19T08:58:19;4.10;;;2.47;;
18435;SDS011;9346;52.006;4.720;2023-02-19T09:00:46;10.87;;;3.37;;
18435;SDS011;9346;52.006;4.720;2023-02-19T09:03:13;11.60;;;3.33;;
18435;SDS011;9346;52.006;4.720;2023-02-19T09:05:40;13.87;;;3.80;;
18435;SDS011;9346;52.006;4.720;2023-02-19T09:08:07;10.23;;;2.90;;
18435;SDS011;9346;52.006;4.720;2023-02-19T09:10:34;9.33;;;2.67;;
18435;SDS011;9346;52.006;4.720;2023-02-19T09:13:05;8.90;;;3.53;;
18435;SDS011;9346;52.006;4.720;2023-02-19T09:15:32;6.93;;;2.90;;
18435;SDS011;9346;52.006;4.720;2023-02-19T09:17:59;8.73;;;3.03;;
18435;SDS011;9346;52.006;4.720;2023-02-19T09:20:26;5.93;;;2.60;;
18435;SDS011;9346;52.006;4.720;2023-02-19T09:22:56;9.93;;;3.37;;
18435;SDS011;9346;52.006;4.720;2023-02-19T09:25:23;8.47;;;2.77;;
18435;SDS011;9346;52.006;4.720;2023-02-19T09:27:52;10.60;;;3.43;;
18435;SDS011;9346;52.006;4.720;2023-02-19T09:30:22;14.43;;;3.40;;
18435;SDS011;9346;52.006;4.720;2023-02-19T09:32:49;16.57;;;3.43;;
18435;SDS011;9346;52.006;4.720;2023-02-19T09:35:16;9.83;;;3.13;;
18435;SDS011;9346;52.006;4.720;2023-02-19T09:37:43;7.30;;;2.70;;
18435;SDS011;9346;52.006;4.720;2023-02-19T09:40:10;9.30;;;3.20;;
18435;SDS011;9346;52.006;4.720;2023-02-19T09:42:38;12.60;;;3.03;;
18435;SDS011;9346;52.006;4.720;2023-02-19T09:45:09;11.57;;;2.73;;
18435;SDS011;9346;52.006;4.720;2023-02-19T09:47:43;9.80;;;2.60;;
18435;SDS011;9346;52.006;4.720;2023-02-19T09:50:11;5.97;;;2.83;;
18435;SDS011;9346;52.006;4.720;2023-02-19T09:52:42;7.60;;;3.03;;
18435;SDS011;9346;52.006;4.720;2023-02-19T09:55:14;10.57;;;2.90;;
18435;SDS011;9346;52.006;4.720;2023-02-19T09:57:45;14.87;;;2.70;;
18435;SDS011;9346;52.006;4.720;2023-02-19T10:00:19;11.93;;;2.27;;
18435;SDS011;9346;52.006;4.720;2023-02-19T10:02:51;10.37;;;2.50;;
18435;SDS011;9346;52.006;4.720;2023-02-19T10:05:20;7.90;;;2.30;;
18435;SDS011;9346;52.006;4.720;2023-02-19T10:07:50;4.90;;;1.93;;
18435;SDS011;9346;52.006;4.720;2023-02-19T10:10:23;10.33;;;2.50;;
18435;SDS011;9346;52.006;4.720;2023-02-19T10:12:55;4.80;;;2.03;;
18435;SDS011;9346;52.006;4.720;2023-02-19T10:15:37;4.17;;;1.67;;
18435;SDS011;9346;52.006;4.720;2023-02-19T10:18:09;6.13;;;2.07;;
18435;SDS011;9346;52.006;4.720;2023-02-19T10:20:38;2.83;;;1.63;;
18435;SDS011;9346;52.006;4.720;2023-02-19T10:23:06;1.40;;;1.10;;
18435;SDS011;9346;52.006;4.720;2023-02-19T10:25:37;4.03;;;1.57;;
18435;SDS011;9346;52.006;4.720;2023-02-19T10:28:08;2.10;;;1.27;;
18435;SDS011;9346;52.006;4.720;2023-02-19T10:30:37;1.73;;;1.10;;
18435;SDS011;9346;52.006;4.720;2023-02-19T10:33:07;3.73;;;0.90;;
18435;SDS011;9346;52.006;4.720;2023-02-19T10:35:38;6.73;;;1.37;;
18435;SDS011;9346;52.006;4.720;2023-02-19T10:38:18;3.63;;;1.37;;
18435;SDS011;9346;52.006;4.720;2023-02-19T10:40:48;6.07;;;2.10;;
18435;SDS011;9346;52.006;4.720;2023-02-19T10:43:23;5.80;;;1.17;;
18435;SDS011;9346;52.006;4.720;2023-02-19T10:45:58;3.57;;;1.60;;
18435;SDS011;9346;52.006;4.720;2023-02-19T10:48:30;5.17;;;1.57;;
18435;SDS011;9346;52.006;4.720;2023-02-19T10:51:01;10.00;;;2.23;;
18435;SDS011;9346;52.006;4.720;2023-02-19T10:53:37;5.50;;;1.90;;
18435;SDS011;9346;52.006;4.720;2023-02-19T10:56:07;3.40;;;1.43;;
18435;SDS011;9346;52.006;4.720;2023-02-19T10:58:37;3.60;;;2.00;;
18435;SDS011;9346;52.006;4.720;2023-02-19T11:01:10;6.83;;;1.97;;
18435;SDS011;9346;52.006;4.720;2023-02-19T11:03:41;4.33;;;1.60;;
18435;SDS011;9346;52.006;4.720;2023-02-19T11:06:09;3.63;;;1.30;;
18435;SDS011;9346;52.006;4.720;2023-02-19T11:08:45;5.83;;;1.70;;
18435;SDS011;9346;52.006;4.720;2023-02-19T11:11:21;9.60;;;3.57;;
18435;SDS011;9346;52.006;4.720;2023-02-19T11:13:52;6.33;;;3.27;;
18435;SDS011;9346;52.006;4.720;2023-02-19T11:16:21;6.07;;;3.47;;
18435;SDS011;9346;52.006;4.720;2023-02-19T11:18:53;6.27;;;1.50;;
18435;SDS011;9346;52.006;4.720;2023-02-19T11:21:23;3.33;;;1.60;;
18435;SDS011;9346;52.006;4.720;2023-02-19T11:23:57;3.10;;;1.10;;
18435;SDS011;9346;52.006;4.720;2023-02-19T11:26:26;4.20;;;1.67;;
18435;SDS011;9346;52.006;4.720;2023-02-19T11:28:56;5.57;;;1.73;;
18435;SDS011;9346;52.006;4.720;2023-02-19T11:31:24;2.07;;;1.10;;
18435;SDS011;9346;52.006;4.720;2023-02-19T11:33:57;1.40;;;1.10;;
18435;SDS011;9346;52.006;4.720;2023-02-19T11:36:29;5.20;;;1.47;;
18435;SDS011;9346;52.006;4.720;2023-02-19T11:39:00;2.53;;;1.30;;
18435;SDS011;9346;52.006;4.720;2023-02-19T11:41:45;8.07;;;1.40;;
18435;SDS011;9346;52.006;4.720;2023-02-19T11:44:30;4.77;;;1.30;;
18435;SDS011;9346;52.006;4.720;2023-02-19T11:47:19;6.43;;;1.40;;
18435;SDS011;9346;52.006;4.720;2023-02-19T11:50:11;2.77;;;1.10;;
18435;SDS011;9346;52.006;4.720;2023-02-19T11:52:49;3.03;;;1.20;;
18435;SDS011;9346;52.006;4.720;2023-02-19T11:55:33;1.10;;;1.00;;
18435;SDS011;9346;52.006;4.720;2023-02-19T11:58:12;0.80;;;0.70;;
18435;SDS011;9346;52.006;4.720;2023-02-19T12:00:57;8.80;;;1.50;;
18435;SDS011;9346;52.006;4.720;2023-02-19T12:03:39;5.33;;;1.57;;
18435;SDS011;9346;52.006;4.720;2023-02-19T12:06:24;1.50;;;0.83;;
18435;SDS011;9346;52.006;4.720;2023-02-19T12:09:17;2.07;;;1.20;;
18435;SDS011;9346;52.006;4.720;2023-02-19T12:11:57;4.60;;;1.07;;
18435;SDS011;9346;52.006;4.720;2023-02-19T12:17:32;3.77;;;1.20;;
18435;SDS011;9346;52.006;4.720;2023-02-19T12:20:16;0.90;;;0.90;;
18435;SDS011;9346;52.006;4.720;2023-02-19T12:22:53;3.47;;;1.00;;
18435;SDS011;9346;52.006;4.720;2023-02-19T12:25:38;3.70;;;1.27;;
18435;SDS011;9346;52.006;4.720;2023-02-19T12:28:22;4.87;;;1.10;;
18435;SDS011;9346;52.006;4.720;2023-02-19T12:34:09;3.67;;;1.60;;
18435;SDS011;9346;52.006;4.720;2023-02-19T12:36:47;1.20;;;1.10;;
18435;SDS011;9346;52.006;4.720;2023-02-19T12:39:25;3.47;;;1.63;;
18435;SDS011;9346;52.006;4.720;2023-02-19T12:42:05;3.13;;;1.40;;
18435;SDS011;9346;52.006;4.720;2023-02-19T12:44:41;2.53;;;1.30;;
18435;SDS011;9346;52.006;4.720;2023-02-19T12:47:14;5.73;;;1.47;;
18435;SDS011;9346;52.006;4.720;2023-02-19T12:49:46;3.83;;;1.80;;
18435;SDS011;9346;52.006;4.720;2023-02-19T12:52:17;6.47;;;1.90;;
18435;SDS011;9346;52.006;4.720;2023-02-19T12:54:49;6.40;;;2.10;;
18435;SDS011;9346;52.006;4.720;2023-02-19T12:57:20;1.90;;;1.17;;
18435;SDS011;9346;52.006;4.720;2023-02-19T12:59:50;6.17;;;1.13;;
18435;SDS011;9346;52.006;4.720;2023-02-19T13:02:24;1.80;;;1.10;;
18435;SDS011;9346;52.006;4.720;2023-02-19T13:04:57;2.43;;;1.70;;
18435;SDS011;9346;52.006;4.720;2023-02-19T13:07:29;4.93;;;2.60;;
18435;SDS011;9346;52.006;4.720;2023-02-19T13:10:06;7.57;;;3.90;;
18435;SDS011;9346;52.006;4.720;2023-02-19T13:12:43;6.70;;;3.70;;
18435;SDS011;9346;52.006;4.720;2023-02-19T13:15:13;5.93;;;3.03;;
18435;SDS011;9346;52.006;4.720;2023-02-19T13:17:43;6.63;;;3.23;;
18435;SDS011;9346;52.006;4.720;2023-02-19T13:20:23;5.87;;;3.23;;
18435;SDS011;9346;52.006;4.720;2023-02-19T13:22:54;7.13;;;4.37;;
18435;SDS011;9346;52.006;4.720;2023-02-19T13:25:50;4.57;;;2.93;;
18435;SDS011;9346;52.006;4.720;2023-02-19T13:28:35;5.17;;;3.03;;
18435;SDS011;9346;52.006;4.720;2023-02-19T13:31:19;8.70;;;3.03;;
18435;SDS011;9346;52.006;4.720;2023-02-19T13:33:57;5.70;;;2.97;;
18435;SDS011;9346;52.006;4.720;2023-02-19T13:36:32;5.37;;;3.00;;
18435;SDS011;9346;52.006;4.720;2023-02-19T13:39:03;6.63;;;2.90;;
18435;SDS011;9346;52.006;4.720;2023-02-19T13:41:34;6.50;;;3.27;;
18435;SDS011;9346;52.006;4.720;2023-02-19T13:44:05;7.53;;;2.90;;
18435;SDS011;9346;52.006;4.720;2023-02-19T13:46:39;3.47;;;2.17;;
18435;SDS011;9346;52.006;4.720;2023-02-19T14:04:49;5.83;;;3.00;;
18435;SDS011;9346;52.006;4.720;2023-02-19T14:07:34;7.50;;;3.37;;
18435;SDS011;9346;52.006;4.720;2023-02-19T14:16:31;3.77;;;2.50;;
18435;SDS011;9346;52.006;4.720;2023-02-19T14:19:14;4.00;;;2.33;;
18435;SDS011;9346;52.006;4.720;2023-02-19T14:22:07;7.83;;;2.60;;
18435;SDS011;9346;52.006;4.720;2023-02-19T14:28:29;6.23;;;2.50;;
18435;SDS011;9346;52.006;4.720;2023-02-19T14:31:01;4.33;;;2.57;;
18435;SDS011;9346;52.006;4.720;2023-02-19T14:33:36;7.40;;;3.07;;
18435;SDS011;9346;52.006;4.720;2023-02-19T14:36:08;5.67;;;3.10;;
18435;SDS011;9346;52.006;4.720;2023-02-19T14:38:45;4.63;;;2.67;;
18435;SDS011;9346;52.006;4.720;2023-02-19T14:41:16;5.27;;;3.10;;
18435;SDS011;9346;52.006;4.720;2023-02-19T14:43:43;1.33;;;1.07;;
18435;SDS011;9346;52.006;4.720;2023-02-19T14:46:15;1.70;;;1.20;;
18435;SDS011;9346;52.006;4.720;2023-02-19T14:48:49;1.50;;;1.00;;
18435;SDS011;9346;52.006;4.720;2023-02-19T14:51:22;1.20;;;0.83;;
18435;SDS011;9346;52.006;4.720;2023-02-19T14:54:00;2.73;;;0.77;;
18435;SDS011;9346;52.006;4.720;2023-02-19T14:56:36;0.63;;;0.63;;
18435;SDS011;9346;52.006;4.720;2023-02-19T14:59:07;0.50;;;0.50;;
18435;SDS011;9346;52.006;4.720;2023-02-19T15:01:52;1.80;;;0.87;;
18435;SDS011;9346;52.006;4.720;2023-02-19T15:04:20;1.63;;;0.73;;
18435;SDS011;9346;52.006;4.720;2023-02-19T15:06:49;1.83;;;0.80;;
18435;SDS011;9346;52.006;4.720;2023-02-19T15:09:21;0.40;;;0.40;;
18435;SDS011;9346;52.006;4.720;2023-02-19T15:11:54;0.83;;;0.83;;
18435;SDS011;9346;52.006;4.720;2023-02-19T15:14:23;3.70;;;0.90;;
18435;SDS011;9346;52.006;4.720;2023-02-19T15:16:55;0.93;;;0.50;;
18435;SDS011;9346;52.006;4.720;2023-02-19T15:19:25;0.90;;;0.70;;
18435;SDS011;9346;52.006;4.720;2023-02-19T15:21:53;0.50;;;0.50;;
18435;SDS011;9346;52.006;4.720;2023-02-19T15:24:22;0.87;;;0.63;;
18435;SDS011;9346;52.006;4.720;2023-02-19T15:26:49;2.20;;;0.67;;
18435;SDS011;9346;52.006;4.720;2023-02-19T15:29:19;0.53;;;0.53;;
18435;SDS011;9346;52.006;4.720;2023-02-19T15:31:48;0.93;;;0.60;;
18435;SDS011;9346;52.006;4.720;2023-02-19T15:34:17;0.67;;;0.60;;
18435;SDS011;9346;52.006;4.720;2023-02-19T15:36:45;0.80;;;0.70;;
18435;SDS011;9346;52.006;4.720;2023-02-19T15:39:19;2.57;;;1.33;;
18435;SDS011;9346;52.006;4.720;2023-02-19T15:41:54;1.27;;;1.00;;
18435;SDS011;9346;52.006;4.720;2023-02-19T15:44:30;1.23;;;0.77;;
18435;SDS011;9346;52.006;4.720;2023-02-19T15:47:06;1.33;;;1.00;;
18435;SDS011;9346;52.006;4.720;2023-02-19T15:49:41;1.07;;;0.70;;
18435;SDS011;9346;52.006;4.720;2023-02-19T15:52:16;0.60;;;0.60;;
18435;SDS011;9346;52.006;4.720;2023-02-19T15:54:51;0.67;;;0.50;;
18435;SDS011;9346;52.006;4.720;2023-02-19T15:57:26;1.03;;;0.50;;
18435;SDS011;9346;52.006;4.720;2023-02-19T15:59:58;0.83;;;0.60;;